Time;durP1;ratioP1;P1;durP2;ratioP2;P2;SDS_P1;SDS_P2;PMS_P1;PMS_P2;Temp;Humidity;BMP_temperature;BMP_pressure;BME280_temperature;BME280_humidity;BME280_pressure;Samples;Min_cycle;Max_cycle;Signal;HPM_P1;HPM_P2
2022/01/17 00:01:21;;;;;;;12.15;2.92;;;;;;;;;;5046153;28;20040;-60
2022/01/17 00:03:49;;;;;;;25.65;2.42;;;;;;;;;;5046343;28;20029;-59
2022/01/17 00:06:14;;;;;;;24.90;2.15;;;;;;;;;;5031794;28;20071;-59
2022/01/17 00:08:44;;;;;;;7.20;1.02;;;;;;;;;;5051438;28;20098;-58
2022/01/17 00:11:16;;;;;;;11.45;1.80;;;;;;;;;;5032958;28;20024;-60
2022/01/17 00:13:42;;;;;;;12.80;1.55;;;;;;;;;;5032465;28;20029;-58
2022/01/17 00:16:19;;;;;;;15.77;1.58;;;;;;;;;;5050412;28;20023;-60
2022/01/17 00:21:13;;;;;;;9.30;1.30;;;;;;;;;;5031859;28;20020;-59
2022/01/17 00:23:43;;;;;;;19.50;2.47;;;;;;;;;;5040100;28;20372;-60
2022/01/17 00:26:09;;;;;;;13.32;1.85;;;;;;;;;;5049246;28;20052;-58
2022/01/17 00:28:39;;;;;;;17.05;2.97;;;;;;;;;;5030938;28;20040;-58
2022/01/17 00:31:05;;;;;;;15.00;1.95;;;;;;;;;;5048204;28;22331;-58
2022/01/17 00:33:31;;;;;;;13.32;1.60;;;;;;;;;;5030219;28;20044;-58
2022/01/17 00:35:59;;;;;;;23.73;2.20;;;;;;;;;;5023947;28;20044;-58
2022/01/17 00:38:26;;;;;;;15.20;2.53;;;;;;;;;;5046105;28;20472;-61
2022/01/17 00:40:54;;;;;;;15.38;2.08;;;;;;;;;;5037988;28;20033;-60
2022/01/17 00:43:22;;;;;;;14.60;1.63;;;;;;;;;;5031498;28;20040;-59
2022/01/17 00:45:48;;;;;;;12.52;1.60;;;;;;;;;;5031322;28;20083;-59
2022/01/17 00:48:15;;;;;;;10.50;1.65;;;;;;;;;;5040275;28;20020;-59
2022/01/17 00:50:41;;;;;;;11.32;1.60;;;;;;;;;;5025279;28;20041;-59
2022/01/17 00:53:09;;;;;;;11.13;1.55;;;;;;;;;;5048653;28;20041;-60
2022/01/17 00:55:35;;;;;;;16.10;1.90;;;;;;;;;;5021930;28;20039;-58
2022/01/17 00:58:06;;;;;;;17.88;1.73;;;;;;;;;;5016950;28;20032;-59
2022/01/17 01:00:35;;;;;;;15.25;1.33;;;;;;;;;;5030063;28;20033;-58
2022/01/17 01:03:00;;;;;;;22.75;2.28;;;;;;;;;;5028073;28;20035;-58
2022/01/17 01:05:25;;;;;;;14.93;2.00;;;;;;;;;;5030246;28;20683;-58
2022/01/17 01:07:54;;;;;;;12.20;1.42;;;;;;;;;;5047908;28;20051;-58
2022/01/17 01:10:19;;;;;;;18.45;2.03;;;;;;;;;;5031764;28;20083;-58
2022/01/17 01:12:49;;;;;;;14.95;1.55;;;;;;;;;;5046843;28;20137;-58
2022/01/17 01:15:22;;;;;;;16.83;1.80;;;;;;;;;;5048948;28;20028;-58
2022/01/17 01:29:08;;;;;;;15.80;2.10;;;;;;;;;;5031131;28;22056;-58
2022/01/17 01:31:46;;;;;;;12.10;1.77;;;;;;;;;;5029167;28;20123;-59
2022/01/17 01:34:12;;;;;;;25.55;2.03;;;;;;;;;;5045695;28;20468;-59
2022/01/17 01:36:41;;;;;;;16.33;2.03;;;;;;;;;;5046412;28;20054;-59
2022/01/17 01:39:12;;;;;;;13.05;1.35;;;;;;;;;;5036237;28;20116;-59
2022/01/17 01:41:42;;;;;;;24.85;2.50;;;;;;;;;;5026185;28;20681;-59
2022/01/17 01:44:17;;;;;;;12.90;1.88;;;;;;;;;;5046525;28;20070;-60
2022/01/17 01:50:26;;;;;;;23.95;2.55;;;;;;;;;;5045034;28;20392;-59
2022/01/17 01:56:30;;;;;;;9.23;2.33;;;;;;;;;;5044277;28;21057;-59
2022/01/17 01:59:00;;;;;;;23.42;2.22;;;;;;;;;;5038465;28;20043;-59
2022/01/17 02:01:30;;;;;;;13.73;1.80;;;;;;;;;;5045140;28;20043;-60
2022/01/17 02:04:29;;;;;;;21.80;2.13;;;;;;;;;;5030231;28;20032;-59
2022/01/17 02:06:55;;;;;;;15.18;2.22;;;;;;;;;;5035246;28;20036;-60
2022/01/17 02:09:23;;;;;;;17.13;2.33;;;;;;;;;;5045989;28;20036;-58
2022/01/17 02:11:53;;;;;;;17.85;1.98;;;;;;;;;;5047483;28;20127;-58
2022/01/17 02:14:24;;;;;;;16.77;1.67;;;;;;;;;;5018923;28;20499;-58
2022/01/17 02:16:50;;;;;;;28.88;2.92;;;;;;;;;;5044294;28;20063;-58
2022/01/17 02:19:21;;;;;;;34.97;2.85;;;;;;;;;;5012910;28;20388;-58
2022/01/17 02:21:53;;;;;;;21.85;1.83;;;;;;;;;;5011817;28;20040;-58
2022/01/17 02:24:21;;;;;;;15.43;2.22;;;;;;;;;;5038992;28;20032;-58
2022/01/17 02:26:48;;;;;;;21.65;1.92;;;;;;;;;;5036562;28;20733;-59
2022/01/17 02:29:16;;;;;;;10.65;2.05;;;;;;;;;;5047136;28;20723;-59
2022/01/17 02:31:47;;;;;;;10.13;1.70;;;;;;;;;;5047371;28;20235;-59
2022/01/17 02:34:12;;;;;;;22.45;2.45;;;;;;;;;;5046766;28;21928;-60
2022/01/17 02:36:38;;;;;;;17.25;1.58;;;;;;;;;;5045854;28;20028;-58
2022/01/17 02:39:06;;;;;;;24.75;1.85;;;;;;;;;;5044725;28;20017;-58
2022/01/17 02:41:35;;;;;;;14.50;2.13;;;;;;;;;;5042223;28;21073;-58
2022/01/17 02:44:03;;;;;;;29.50;2.17;;;;;;;;;;5029033;28;20040;-59
2022/01/17 02:46:29;;;;;;;19.75;1.83;;;;;;;;;;5046469;28;20028;-58
2022/01/17 02:48:58;;;;;;;15.52;1.40;;;;;;;;;;5048083;28;20028;-58
2022/01/17 02:51:24;;;;;;;10.85;1.67;;;;;;;;;;5047538;28;20180;-59
2022/01/17 02:53:49;;;;;;;28.77;2.88;;;;;;;;;;5011033;28;20567;-58
2022/01/17 02:56:16;;;;;;;28.48;2.28;;;;;;;;;;5046880;28;20032;-58
2022/01/17 02:58:42;;;;;;;11.10;1.15;;;;;;;;;;5027140;28;20033;-59
2022/01/17 03:01:11;;;;;;;5.95;2.30;;;;;;;;;;5029373;28;20740;-59
2022/01/17 03:03:58;;;;;;;15.82;1.65;;;;;;;;;;5045262;28;20033;-59
2022/01/17 03:06:26;;;;;;;20.92;2.20;;;;;;;;;;5044518;28;20498;-59
2022/01/17 03:08:57;;;;;;;16.55;2.50;;;;;;;;;;5046948;28;20028;-59
2022/01/17 03:11:28;;;;;;;17.00;1.85;;;;;;;;;;5005225;28;20123;-59
2022/01/17 03:13:53;;;;;;;16.80;2.30;;;;;;;;;;5046229;28;20992;-59
2022/01/17 03:16:28;;;;;;;20.73;1.80;;;;;;;;;;5044019;28;20028;-59
2022/01/17 03:18:54;;;;;;;10.45;1.95;;;;;;;;;;5045569;28;20028;-59
2022/01/17 03:21:22;;;;;;;20.60;2.10;;;;;;;;;;4999134;28;20037;-60
2022/01/17 03:23:53;;;;;;;27.90;1.95;;;;;;;;;;5045127;28;20069;-59
2022/01/17 03:26:21;;;;;;;11.13;1.75;;;;;;;;;;5043950;28;20546;-60
2022/01/17 03:28:49;;;;;;;11.95;1.52;;;;;;;;;;5026803;28;20036;-59
2022/01/17 03:31:17;;;;;;;31.92;2.05;;;;;;;;;;5024872;28;20036;-59
2022/01/17 03:33:45;;;;;;;18.08;1.50;;;;;;;;;;5047511;28;20117;-59
2022/01/17 03:36:10;;;;;;;19.75;2.05;;;;;;;;;;5037263;28;22349;-59
2022/01/17 03:38:41;;;;;;;11.05;1.48;;;;;;;;;;5029860;28;21963;-59
2022/01/17 03:41:07;;;;;;;17.65;2.00;;;;;;;;;;5031979;28;20041;-59
2022/01/17 03:43:35;;;;;;;24.58;3.15;;;;;;;;;;5048657;28;20071;-60
2022/01/17 03:46:01;;;;;;;8.98;2.03;;;;;;;;;;5049311;28;20106;-59
2022/01/17 03:48:31;;;;;;;16.00;1.40;;;;;;;;;;5032142;28;20504;-59
2022/01/17 03:50:58;;;;;;;11.25;2.10;;;;;;;;;;5048559;28;21283;-59
2022/01/17 03:53:27;;;;;;;9.00;1.85;;;;;;;;;;5050830;28;20523;-60
2022/01/17 03:55:54;;;;;;;29.17;2.05;;;;;;;;;;5047437;28;20293;-60
2022/01/17 03:58:21;;;;;;;20.17;1.50;;;;;;;;;;5014336;28;20124;-58
2022/01/17 04:00:47;;;;;;;5.40;1.45;;;;;;;;;;5042081;28;20113;-60
2022/01/17 04:03:13;;;;;;;13.45;1.45;;;;;;;;;;5030708;28;20028;-60
2022/01/17 04:05:43;;;;;;;14.88;1.35;;;;;;;;;;5040860;28;20037;-59
2022/01/17 04:08:09;;;;;;;22.40;1.92;;;;;;;;;;5032594;28;20111;-59
2022/01/17 04:10:35;;;;;;;9.68;2.05;;;;;;;;;;5050510;28;20054;-60
2022/01/17 04:13:03;;;;;;;14.75;2.38;;;;;;;;;;5031256;28;20041;-60
2022/01/17 04:15:29;;;;;;;9.48;1.92;;;;;;;;;;5015647;28;20028;-59
2022/01/17 04:17:57;;;;;;;11.15;1.70;;;;;;;;;;5031907;28;20036;-59
2022/01/17 04:20:29;;;;;;;14.57;1.67;;;;;;;;;;5039756;28;21579;-59
2022/01/17 04:22:59;;;;;;;16.75;1.58;;;;;;;;;;5029858;28;20037;-59
2022/01/17 04:25:32;;;;;;;14.32;1.40;;;;;;;;;;5031393;28;21522;-59
2022/01/17 04:27:58;;;;;;;9.55;1.80;;;;;;;;;;5048158;28;20024;-59
2022/01/17 04:30:24;;;;;;;16.88;2.63;;;;;;;;;;5048955;28;20036;-59
2022/01/17 04:32:50;;;;;;;9.55;1.20;;;;;;;;;;5046968;28;20063;-59
2022/01/17 04:35:22;;;;;;;14.07;1.63;;;;;;;;;;5026343;28;20025;-60
2022/01/17 04:37:52;;;;;;;15.80;1.80;;;;;;;;;;5045215;28;20059;-60
2022/01/17 04:40:18;;;;;;;17.67;1.70;;;;;;;;;;5047530;28;20119;-60
2022/01/17 04:42:48;;;;;;;11.68;2.00;;;;;;;;;;5046078;28;20069;-58
2022/01/17 04:45:17;;;;;;;17.05;2.30;;;;;;;;;;5047215;28;20053;-60
2022/01/17 04:47:47;;;;;;;15.00;2.42;;;;;;;;;;5049157;28;20468;-59
2022/01/17 04:50:14;;;;;;;17.58;1.63;;;;;;;;;;5046950;28;20036;-60
2022/01/17 04:52:43;;;;;;;24.80;4.03;;;;;;;;;;5047251;28;20029;-60
2022/01/17 04:55:11;;;;;;;14.93;2.15;;;;;;;;;;5045540;28;20028;-60
2022/01/17 04:57:40;;;;;;;13.48;2.08;;;;;;;;;;5028808;28;20506;-60
2022/01/17 05:00:07;;;;;;;15.27;2.22;;;;;;;;;;5032250;28;20064;-59
2022/01/17 05:02:35;;;;;;;16.60;2.00;;;;;;;;;;5029814;28;20409;-59
2022/01/17 05:05:05;;;;;;;12.25;1.92;;;;;;;;;;5029414;28;20132;-59
2022/01/17 05:07:34;;;;;;;8.85;1.70;;;;;;;;;;5043766;28;20033;-59
2022/01/17 05:09:59;;;;;;;24.25;2.00;;;;;;;;;;5016927;28;20078;-59
2022/01/17 05:12:26;;;;;;;14.00;1.73;;;;;;;;;;5011209;28;20043;-59
2022/01/17 05:14:54;;;;;;;18.98;2.30;;;;;;;;;;5030490;28;20409;-59
2022/01/17 05:19:57;;;;;;;18.73;2.60;;;;;;;;;;5046497;28;20020;-60
2022/01/17 05:22:25;;;;;;;14.57;2.20;;;;;;;;;;5045742;28;22807;-59
2022/01/17 05:24:51;;;;;;;27.90;2.75;;;;;;;;;;5031391;28;20043;-59
2022/01/17 05:27:23;;;;;;;13.57;3.53;;;;;;;;;;5044658;28;20516;-59
2022/01/17 05:29:51;;;;;;;16.92;2.25;;;;;;;;;;5047687;28;20040;-60
2022/01/17 05:32:20;;;;;;;21.50;2.10;;;;;;;;;;5044298;28;21907;-59
2022/01/17 05:34:55;;;;;;;28.77;4.00;;;;;;;;;;5029456;28;20040;-59
2022/01/17 05:37:23;;;;;;;18.60;2.35;;;;;;;;;;5030497;28;20048;-61
2022/01/17 05:39:48;;;;;;;22.35;2.83;;;;;;;;;;5014391;28;20060;-60
2022/01/17 05:42:17;;;;;;;12.38;2.88;;;;;;;;;;5046477;28;20047;-59
2022/01/17 05:44:46;;;;;;;20.88;2.97;;;;;;;;;;5029230;28;20036;-59
2022/01/17 05:47:14;;;;;;;17.15;2.72;;;;;;;;;;5029382;28;20043;-58
2022/01/17 05:49:42;;;;;;;20.00;2.80;;;;;;;;;;5049260;28;20027;-59
2022/01/17 05:52:10;;;;;;;18.65;3.67;;;;;;;;;;5014389;28;20043;-59
2022/01/17 05:54:35;;;;;;;32.45;3.47;;;;;;;;;;5030259;28;20057;-59
2022/01/17 05:57:04;;;;;;;22.25;3.17;;;;;;;;;;5013138;28;20077;-59
2022/01/17 05:59:29;;;;;;;28.40;3.13;;;;;;;;;;5038176;28;20032;-59
2022/01/17 06:01:59;;;;;;;20.48;3.03;;;;;;;;;;4998110;28;20494;-59
2022/01/17 06:04:27;;;;;;;19.67;3.42;;;;;;;;;;5028764;28;20113;-59
2022/01/17 06:06:55;;;;;;;18.08;2.38;;;;;;;;;;5047021;28;20040;-59
2022/01/17 06:09:22;;;;;;;22.45;2.55;;;;;;;;;;5044368;28;20047;-58
2022/01/17 06:11:50;;;;;;;13.73;2.67;;;;;;;;;;5011593;28;20514;-59
2022/01/17 06:14:23;;;;;;;16.90;2.40;;;;;;;;;;5038178;28;20156;-59
2022/01/17 06:16:53;;;;;;;16.80;2.65;;;;;;;;;;5047780;28;20277;-59
2022/01/17 06:19:19;;;;;;;31.00;3.30;;;;;;;;;;5049365;28;20028;-59
2022/01/17 06:21:44;;;;;;;17.67;3.70;;;;;;;;;;5031497;28;20040;-59
2022/01/17 06:24:12;;;;;;;15.85;3.42;;;;;;;;;;5022205;28;20580;-60
2022/01/17 06:26:39;;;;;;;26.95;4.05;;;;;;;;;;5027321;28;20058;-59
2022/01/17 06:29:06;;;;;;;23.75;3.15;;;;;;;;;;5048350;28;20045;-59
2022/01/17 06:31:33;;;;;;;24.30;3.38;;;;;;;;;;5020033;28;20044;-61
2022/01/17 06:37:39;;;;;;;19.77;3.88;;;;;;;;;;5044036;28;20132;-58
2022/01/17 06:40:10;;;;;;;20.10;2.40;;;;;;;;;;5029784;28;20209;-59
2022/01/17 06:42:36;;;;;;;28.98;3.55;;;;;;;;;;5029238;28;20033;-58
2022/01/17 06:45:07;;;;;;;44.53;3.13;;;;;;;;;;5004869;28;20039;-59
2022/01/17 06:47:33;;;;;;;13.15;2.55;;;;;;;;;;5046765;28;20059;-59
2022/01/17 06:50:04;;;;;;;14.70;3.72;;;;;;;;;;5032578;28;20040;-58
2022/01/17 06:52:32;;;;;;;20.67;4.03;;;;;;;;;;5048011;28;20039;-60
2022/01/17 06:54:57;;;;;;;31.90;4.43;;;;;;;;;;5043555;28;20052;-59
2022/01/17 06:57:23;;;;;;;30.33;2.85;;;;;;;;;;5047312;28;20135;-59
2022/01/17 06:59:48;;;;;;;19.60;2.75;;;;;;;;;;5047777;28;20032;-61
2022/01/17 07:02:16;;;;;;;22.98;4.45;;;;;;;;;;5044608;28;20036;-62
2022/01/17 07:04:42;;;;;;;17.35;2.95;;;;;;;;;;5016240;28;20454;-59
2022/01/17 07:07:12;;;;;;;21.50;3.28;;;;;;;;;;5031790;28;20037;-59
2022/01/17 07:09:40;;;;;;;24.25;2.95;;;;;;;;;;5020599;28;20492;-61
2022/01/17 07:12:10;;;;;;;25.90;3.55;;;;;;;;;;5043116;28;20408;-59
2022/01/17 07:14:43;;;;;;;24.30;3.10;;;;;;;;;;5052005;28;20410;-59
2022/01/17 07:17:11;;;;;;;32.67;2.88;;;;;;;;;;5021213;28;20024;-59
2022/01/17 07:19:39;;;;;;;26.63;3.33;;;;;;;;;;5052989;28;20100;-60
2022/01/17 07:22:32;;;;;;;36.00;4.40;;;;;;;;;;5053753;28;20040;-61
2022/01/17 07:24:59;;;;;;;23.08;3.28;;;;;;;;;;5053144;28;20056;-61
2022/01/17 07:27:25;;;;;;;34.08;4.32;;;;;;;;;;5047112;28;20126;-59
2022/01/17 07:29:51;;;;;;;38.53;3.97;;;;;;;;;;5053250;28;20028;-60
2022/01/17 07:32:21;;;;;;;41.92;3.40;;;;;;;;;;5034240;28;20033;-60
2022/01/17 07:34:49;;;;;;;21.13;3.05;;;;;;;;;;5013174;28;20173;-60
2022/01/17 07:37:15;;;;;;;40.42;3.25;;;;;;;;;;5028636;28;20024;-59
2022/01/17 07:39:43;;;;;;;29.70;3.85;;;;;;;;;;5052569;28;20032;-60
2022/01/17 07:42:13;;;;;;;37.72;4.43;;;;;;;;;;5017436;28;20032;-60
2022/01/17 07:44:44;;;;;;;38.28;4.35;;;;;;;;;;5052716;28;20043;-62
2022/01/17 07:47:18;;;;;;;27.50;3.65;;;;;;;;;;5013050;28;20036;-59
2022/01/17 07:49:45;;;;;;;29.33;5.10;;;;;;;;;;5019861;28;20156;-59
2022/01/17 07:52:17;;;;;;;30.10;3.72;;;;;;;;;;5053075;28;20025;-59
2022/01/17 07:54:44;;;;;;;19.80;2.70;;;;;;;;;;5016246;28;20040;-59
2022/01/17 07:57:15;;;;;;;39.40;3.97;;;;;;;;;;5049637;28;20117;-59
2022/01/17 07:59:45;;;;;;;27.02;3.78;;;;;;;;;;5048568;28;20040;-59
2022/01/17 08:02:15;;;;;;;21.70;3.47;;;;;;;;;;5034772;28;20036;-59
2022/01/17 08:04:41;;;;;;;21.30;3.97;;;;;;;;;;5035533;28;20028;-60
2022/01/17 08:07:07;;;;;;;29.45;3.03;;;;;;;;;;5037253;28;20443;-62
2022/01/17 08:09:36;;;;;;;31.95;3.67;;;;;;;;;;5043980;28;20035;-59
2022/01/17 08:12:05;;;;;;;38.05;4.75;;;;;;;;;;5032715;28;20036;-59
2022/01/17 08:14:33;;;;;;;26.92;3.25;;;;;;;;;;5048850;28;20028;-59
2022/01/17 08:17:01;;;;;;;22.08;3.28;;;;;;;;;;5051398;28;20135;-59
2022/01/17 08:19:31;;;;;;;25.48;3.22;;;;;;;;;;5035528;28;21110;-59
2022/01/17 08:21:57;;;;;;;27.92;5.10;;;;;;;;;;5033752;28;20127;-59
2022/01/17 08:24:27;;;;;;;34.25;3.92;;;;;;;;;;5048461;28;20024;-59
2022/01/17 08:26:55;;;;;;;33.78;3.65;;;;;;;;;;5045093;28;20045;-59
2022/01/17 08:29:25;;;;;;;28.85;3.17;;;;;;;;;;5046646;28;20402;-59
2022/01/17 08:31:51;;;;;;;30.70;3.20;;;;;;;;;;5031936;28;20036;-59
2022/01/17 08:34:17;;;;;;;33.60;3.70;;;;;;;;;;5013697;28;20051;-59
2022/01/17 08:36:43;;;;;;;28.38;3.53;;;;;;;;;;5030150;28;20073;-59
2022/01/17 08:39:10;;;;;;;20.23;3.38;;;;;;;;;;5005624;28;20028;-60
2022/01/17 08:41:36;;;;;;;31.83;3.75;;;;;;;;;;5017320;28;20064;-59
2022/01/17 08:44:04;;;;;;;27.60;3.88;;;;;;;;;;5033015;28;20029;-60
2022/01/17 08:46:29;;;;;;;41.65;4.32;;;;;;;;;;5046694;28;20041;-60
2022/01/17 08:48:55;;;;;;;35.50;4.80;;;;;;;;;;5029515;28;20043;-60
2022/01/17 08:51:20;;;;;;;33.58;3.22;;;;;;;;;;5027424;28;20040;-59
2022/01/17 08:53:48;;;;;;;29.33;3.58;;;;;;;;;;5027843;28;20027;-59
2022/01/17 08:56:16;;;;;;;26.30;3.05;;;;;;;;;;5023750;28;20159;-59
2022/01/17 08:58:44;;;;;;;20.30;3.72;;;;;;;;;;5027579;28;20028;-59
2022/01/17 09:01:13;;;;;;;28.75;3.15;;;;;;;;;;5040188;28;20040;-60
2022/01/17 09:03:39;;;;;;;27.15;4.05;;;;;;;;;;5046897;28;20055;-59
2022/01/17 09:06:05;;;;;;;36.42;4.22;;;;;;;;;;5044597;28;20328;-60
2022/01/17 09:08:33;;;;;;;47.95;3.90;;;;;;;;;;5032716;28;20663;-60
2022/01/17 09:10:59;;;;;;;23.90;3.97;;;;;;;;;;5046116;28;20599;-59
2022/01/17 09:13:32;;;;;;;24.95;3.58;;;;;;;;;;5030996;28;20854;-60
2022/01/17 09:16:03;;;;;;;32.80;4.45;;;;;;;;;;5032289;28;20121;-59
2022/01/17 09:18:31;;;;;;;57.47;5.70;;;;;;;;;;4993937;28;20606;-57
2022/01/17 09:21:00;;;;;;;29.25;4.13;;;;;;;;;;5045521;28;20040;-59
2022/01/17 09:23:27;;;;;;;29.48;4.95;;;;;;;;;;5029522;28;20037;-59
2022/01/17 09:25:53;;;;;;;19.85;3.88;;;;;;;;;;5030136;28;20055;-59
2022/01/17 09:28:21;;;;;;;37.53;3.72;;;;;;;;;;5029218;28;20036;-59
2022/01/17 09:30:47;;;;;;;33.13;4.47;;;;;;;;;;5028643;28;20035;-61
2022/01/17 09:33:15;;;;;;;33.70;5.18;;;;;;;;;;5027262;28;20032;-60
2022/01/17 09:35:43;;;;;;;24.92;4.35;;;;;;;;;;5020345;28;20439;-60
2022/01/17 09:38:09;;;;;;;38.65;4.78;;;;;;;;;;5022428;28;22220;-60
2022/01/17 09:40:40;;;;;;;42.63;4.78;;;;;;;;;;5028265;28;20032;-60
2022/01/17 09:43:07;;;;;;;29.52;3.30;;;;;;;;;;5008807;28;20025;-60
2022/01/17 09:45:35;;;;;;;30.75;4.55;;;;;;;;;;5042620;28;20031;-61
2022/01/17 09:48:06;;;;;;;34.92;4.55;;;;;;;;;;5043064;28;22164;-60
2022/01/17 09:50:45;;;;;;;39.88;4.95;;;;;;;;;;5024939;28;21580;-60
2022/01/17 09:53:14;;;;;;;39.30;4.53;;;;;;;;;;5029673;28;20055;-61
2022/01/17 09:55:40;;;;;;;36.85;4.95;;;;;;;;;;5046038;28;20032;-60
2022/01/17 09:58:09;;;;;;;34.17;4.07;;;;;;;;;;5045126;28;20085;-60
2022/01/17 10:00:45;;;;;;;28.33;4.38;;;;;;;;;;5023072;28;20032;-61
2022/01/17 10:03:12;;;;;;;39.47;5.75;;;;;;;;;;5025929;28;20028;-60
2022/01/17 10:05:40;;;;;;;41.40;4.65;;;;;;;;;;5015979;28;20070;-59
2022/01/17 10:08:09;;;;;;;51.10;5.45;;;;;;;;;;5046330;28;20037;-60
2022/01/17 10:10:50;;;;;;;33.45;4.45;;;;;;;;;;5016438;28;20544;-59
2022/01/17 10:13:25;;;;;;;42.05;5.35;;;;;;;;;;5028987;28;20094;-58
2022/01/17 10:15:55;;;;;;;27.38;4.13;;;;;;;;;;5030867;28;20063;-61
2022/01/17 10:18:27;;;;;;;31.08;4.28;;;;;;;;;;5031056;28;20025;-60
2022/01/17 10:20:58;;;;;;;44.08;5.55;;;;;;;;;;5044496;28;20037;-59
2022/01/17 10:26:39;;;;;;;40.07;4.67;;;;;;;;;;5022976;28;20060;-60
2022/01/17 10:29:35;;;;;;;46.08;5.07;;;;;;;;;;5024538;28;20052;-60
2022/01/17 10:37:22;;;;;;;36.88;4.03;;;;;;;;;;5026083;28;20046;-59
2022/01/17 10:39:54;;;;;;;37.05;4.65;;;;;;;;;;5025493;28;20029;-59
2022/01/17 10:42:29;;;;;;;36.20;4.30;;;;;;;;;;5021848;28;20900;-59
2022/01/17 10:45:01;;;;;;;47.13;4.07;;;;;;;;;;5027538;28;20064;-59
2022/01/17 10:47:28;;;;;;;41.70;4.13;;;;;;;;;;5010569;28;20131;-59
2022/01/17 10:49:59;;;;;;;39.00;5.35;;;;;;;;;;5025100;28;20482;-60
2022/01/17 10:52:30;;;;;;;42.55;5.38;;;;;;;;;;5023090;28;20041;-59
2022/01/17 10:54:59;;;;;;;40.13;5.72;;;;;;;;;;5026810;28;20021;-59
2022/01/17 10:57:25;;;;;;;41.35;5.60;;;;;;;;;;5037518;28;20033;-59
2022/01/17 10:59:56;;;;;;;34.70;4.65;;;;;;;;;;5026348;28;20614;-58
2022/01/17 11:02:24;;;;;;;39.58;4.93;;;;;;;;;;5010184;28;20771;-59
2022/01/17 11:04:52;;;;;;;31.73;5.10;;;;;;;;;;5027084;28;20029;-59
2022/01/17 11:07:20;;;;;;;35.75;4.53;;;;;;;;;;5021166;28;20484;-59
2022/01/17 11:09:49;;;;;;;43.28;4.88;;;;;;;;;;5024976;28;20420;-59
2022/01/17 11:12:16;;;;;;;36.10;5.32;;;;;;;;;;5015927;28;20038;-59
2022/01/17 11:14:42;;;;;;;31.40;5.00;;;;;;;;;;5010776;28;20056;-59
2022/01/17 11:17:21;;;;;;;29.83;4.63;;;;;;;;;;5024451;28;20028;-60
2022/01/17 11:20:03;;;;;;;37.92;6.35;;;;;;;;;;5001682;28;20099;-59
2022/01/17 11:22:32;;;;;;;50.08;6.72;;;;;;;;;;5024765;28;20033;-60
2022/01/17 11:25:05;;;;;;;50.08;5.97;;;;;;;;;;5028363;28;20021;-59
2022/01/17 11:27:33;;;;;;;49.40;5.22;;;;;;;;;;5037672;28;20044;-59
2022/01/17 11:29:59;;;;;;;31.30;4.78;;;;;;;;;;5029491;28;21980;-60
2022/01/17 11:32:27;;;;;;;50.15;5.53;;;;;;;;;;5026068;28;20064;-59
2022/01/17 11:34:57;;;;;;;27.20;4.10;;;;;;;;;;5042571;28;20028;-59
2022/01/17 11:37:24;;;;;;;38.83;4.88;;;;;;;;;;5035055;28;20033;-59
2022/01/17 11:39:52;;;;;;;47.20;6.07;;;;;;;;;;5043850;28;20016;-59
2022/01/17 11:42:34;;;;;;;37.58;5.85;;;;;;;;;;5046223;28;20526;-60
2022/01/17 11:45:02;;;;;;;56.97;6.05;;;;;;;;;;5043775;28;20225;-59
2022/01/17 11:47:48;;;;;;;48.95;5.78;;;;;;;;;;5044338;28;20507;-59
2022/01/17 11:50:28;;;;;;;32.30;4.03;;;;;;;;;;5028170;28;20130;-60
2022/01/17 11:52:58;;;;;;;41.88;5.43;;;;;;;;;;5044286;28;20041;-60
2022/01/17 11:55:37;;;;;;;39.03;5.07;;;;;;;;;;5043733;28;20104;-60
2022/01/17 11:58:24;;;;;;;50.33;4.95;;;;;;;;;;5041852;28;20163;-59
2022/01/17 12:01:02;;;;;;;40.90;4.68;;;;;;;;;;5040248;28;20045;-59
2022/01/17 12:03:31;;;;;;;52.42;5.95;;;;;;;;;;5049842;28;20028;-60
2022/01/17 12:06:16;;;;;;;49.40;5.78;;;;;;;;;;5016681;28;20024;-60
2022/01/17 12:08:42;;;;;;;39.17;5.82;;;;;;;;;;5027425;28;20032;-60
2022/01/17 12:11:23;;;;;;;39.88;5.95;;;;;;;;;;5047354;28;20181;-59
2022/01/17 12:13:51;;;;;;;43.90;6.13;;;;;;;;;;5030356;28;20036;-60
2022/01/17 12:16:28;;;;;;;33.08;6.22;;;;;;;;;;5041224;28;20032;-60
2022/01/17 12:18:54;;;;;;;41.72;6.10;;;;;;;;;;5040256;28;20039;-60
2022/01/17 12:21:23;;;;;;;31.20;4.70;;;;;;;;;;5044595;28;20045;-59
2022/01/17 12:24:13;;;;;;;38.42;5.90;;;;;;;;;;5044118;28;20057;-59
2022/01/17 12:26:38;;;;;;;27.20;4.35;;;;;;;;;;5047817;28;20996;-59
2022/01/17 12:29:06;;;;;;;53.00;5.43;;;;;;;;;;5015311;28;20040;-59
2022/01/17 12:31:43;;;;;;;40.97;5.45;;;;;;;;;;5022984;28;20045;-60
2022/01/17 12:34:15;;;;;;;39.40;5.72;;;;;;;;;;5031922;28;20090;-59
2022/01/17 12:36:46;;;;;;;32.17;5.50;;;;;;;;;;5048040;28;20032;-59
2022/01/17 12:39:15;;;;;;;42.53;4.60;;;;;;;;;;5048007;28;20101;-61
2022/01/17 12:41:45;;;;;;;35.25;4.32;;;;;;;;;;5044607;28;20733;-60
2022/01/17 12:44:30;;;;;;;43.80;5.30;;;;;;;;;;5046028;28;20037;-60
2022/01/17 12:47:03;;;;;;;37.83;4.85;;;;;;;;;;5037570;28;20043;-59
2022/01/17 12:49:30;;;;;;;40.85;5.65;;;;;;;;;;5029825;28;20033;-60
2022/01/17 12:51:59;;;;;;;29.17;5.88;;;;;;;;;;5013879;28;20064;-60
2022/01/17 12:54:25;;;;;;;42.50;5.70;;;;;;;;;;5047962;28;20071;-59
2022/01/17 13:00:42;;;;;;;34.78;5.00;;;;;;;;;;5047496;28;20107;-60
2022/01/17 13:03:15;;;;;;;30.52;4.78;;;;;;;;;;5047047;28;20036;-60
2022/01/17 13:05:41;;;;;;;33.00;4.43;;;;;;;;;;5030160;28;20129;-59
2022/01/17 13:08:06;;;;;;;40.67;4.85;;;;;;;;;;5025740;28;20025;-59
2022/01/17 13:10:32;;;;;;;40.53;4.82;;;;;;;;;;5031525;28;20025;-59
2022/01/17 13:13:00;;;;;;;41.85;4.93;;;;;;;;;;5046783;28;20066;-62
2022/01/17 13:15:27;;;;;;;46.58;5.47;;;;;;;;;;5048226;28;20494;-60
2022/01/17 13:17:55;;;;;;;44.83;5.22;;;;;;;;;;5050829;28;20043;-60
2022/01/17 13:20:24;;;;;;;44.28;6.78;;;;;;;;;;5031481;28;20028;-60
2022/01/17 13:23:05;;;;;;;47.38;6.10;;;;;;;;;;5039821;28;20033;-59
2022/01/17 13:25:31;;;;;;;35.58;5.75;;;;;;;;;;5048844;28;20044;-60
2022/01/17 13:28:02;;;;;;;40.10;5.18;;;;;;;;;;5014892;28;20683;-59
2022/01/17 13:30:32;;;;;;;44.17;5.82;;;;;;;;;;5047876;28;22327;-60
2022/01/17 13:33:02;;;;;;;28.70;5.03;;;;;;;;;;5020898;28;20472;-60
2022/01/17 13:35:35;;;;;;;32.45;4.80;;;;;;;;;;5047544;28;21029;-59
2022/01/17 13:38:06;;;;;;;37.42;5.47;;;;;;;;;;5032031;28;20574;-59
2022/01/17 13:40:37;;;;;;;35.40;4.70;;;;;;;;;;5038713;28;20496;-60
2022/01/17 13:43:06;;;;;;;35.80;6.10;;;;;;;;;;5029425;28;20029;-59
2022/01/17 13:45:33;;;;;;;48.88;5.15;;;;;;;;;;5013857;28;20078;-60
2022/01/17 13:48:02;;;;;;;46.20;5.00;;;;;;;;;;5021601;28;20116;-60
2022/01/17 13:50:30;;;;;;;37.28;5.40;;;;;;;;;;5020730;28;20115;-60
2022/01/17 13:53:01;;;;;;;65.80;6.55;;;;;;;;;;5045487;28;20063;-61
2022/01/17 13:55:28;;;;;;;41.22;5.57;;;;;;;;;;5024799;28;20756;-60
2022/01/17 13:58:03;;;;;;;45.55;5.75;;;;;;;;;;5046339;28;21935;-60
2022/01/17 14:00:32;;;;;;;57.22;5.50;;;;;;;;;;5045942;28;20028;-60
2022/01/17 14:03:01;;;;;;;45.47;6.15;;;;;;;;;;5045333;28;20044;-60
2022/01/17 14:05:36;;;;;;;37.85;5.30;;;;;;;;;;5044818;28;20028;-60
2022/01/17 14:08:13;;;;;;;44.30;5.85;;;;;;;;;;5009589;28;20098;-60
2022/01/17 14:10:48;;;;;;;34.90;5.20;;;;;;;;;;5036295;28;20037;-60
2022/01/17 14:13:16;;;;;;;43.90;5.35;;;;;;;;;;5027095;28;20420;-60
2022/01/17 14:15:44;;;;;;;41.80;5.82;;;;;;;;;;5043049;28;20028;-59
2022/01/17 14:18:11;;;;;;;38.03;4.30;;;;;;;;;;5022735;28;20067;-59
2022/01/17 14:20:38;;;;;;;34.13;5.28;;;;;;;;;;5044550;28;20032;-60
2022/01/17 14:23:07;;;;;;;29.80;4.53;;;;;;;;;;5026764;28;20032;-59
2022/01/17 14:25:39;;;;;;;34.42;5.53;;;;;;;;;;5046486;28;20135;-59
2022/01/17 14:28:10;;;;;;;22.45;5.13;;;;;;;;;;5042103;28;20194;-58
2022/01/17 14:30:38;;;;;;;30.00;4.13;;;;;;;;;;5027320;28;20103;-60
2022/01/17 14:33:17;;;;;;;31.70;4.10;;;;;;;;;;5044502;28;20028;-60
2022/01/17 14:36:07;;;;;;;35.40;4.93;;;;;;;;;;5029225;28;20036;-60
2022/01/17 14:38:42;;;;;;;44.85;5.25;;;;;;;;;;5045080;28;20559;-59
2022/01/17 14:41:13;;;;;;;20.33;4.18;;;;;;;;;;5019435;28;20098;-59
2022/01/17 14:43:41;;;;;;;27.33;3.80;;;;;;;;;;5044649;28;20029;-60
2022/01/17 14:46:07;;;;;;;30.08;4.20;;;;;;;;;;5027844;28;20093;-60
2022/01/17 14:48:33;;;;;;;31.42;3.42;;;;;;;;;;5025141;28;20044;-60
2022/01/17 14:51:16;;;;;;;30.63;4.10;;;;;;;;;;5045545;28;20203;-59
2022/01/17 14:53:42;;;;;;;32.95;4.22;;;;;;;;;;5038880;28;20033;-60
2022/01/17 15:01:49;;;;;;;24.20;4.00;;;;;;;;;;5018451;28;20680;-59
2022/01/17 15:04:19;;;;;;;38.78;4.88;;;;;;;;;;5029846;28;20040;-59
2022/01/17 15:06:47;;;;;;;26.63;3.83;;;;;;;;;;5013028;28;20119;-59
2022/01/17 15:09:16;;;;;;;45.83;4.72;;;;;;;;;;5044910;28;20032;-59
2022/01/17 15:11:45;;;;;;;34.47;5.13;;;;;;;;;;5046350;28;20031;-59
2022/01/17 15:14:15;;;;;;;34.50;4.07;;;;;;;;;;5045195;28;20038;-59
2022/01/17 15:16:40;;;;;;;36.67;3.97;;;;;;;;;;5045187;28;20024;-60
2022/01/17 15:19:15;;;;;;;35.45;4.10;;;;;;;;;;5047519;28;20040;-59
2022/01/17 15:21:43;;;;;;;54.10;6.20;;;;;;;;;;5028589;28;20476;-59
2022/01/17 15:24:11;;;;;;;39.85;5.47;;;;;;;;;;5017047;28;20051;-59
2022/01/17 15:26:39;;;;;;;44.30;5.82;;;;;;;;;;5028650;28;20144;-59
2022/01/17 15:29:07;;;;;;;41.47;4.95;;;;;;;;;;5032440;28;20098;-59